KIPL/IPL METAR and TAF weather

Enter ICAO airport designator
Station Type Date Time Source
KIPL METAR 2021/09/23 23:53 UTC NOAA

KIPL 232353Z AUTO 16014KT 8SM FEW043 36/16 A2973 RMK AO2 SLP070 60000 T03560156 10372 20333 56010


Station Type Date Time Source
KIPL Decoded METAR 2021/09/23 23:53 UTC NOAA

Imperial, Imperial County Airport, CA, United States (KIPL) 32-50-03N 115-34-43W -15M
Sep 23, 2021 - 07:53 PM EDT / 2021.09.23 2353 UTC
Wind: from the SSE (160 degrees) at 16 MPH (14 KT):0
Visibility: 8 mile(s):0
Sky conditions: mostly clear
Temperature: 96.1 F (35.6 C)
Heat index: 96.1 F (35.6 C):1
Dew Point: 60.1 F (15.6 C)
Relative Humidity: 30%
Pressure (altimeter): 29.73 in. Hg (1006 hPa)
Pressure tendency: 0.03 inches (1.0 hPa) lower than three hours ago
ob: KIPL 232353Z AUTO 16014KT 8SM FEW043 36/16 A2973 RMK AO2 SLP070 60000 T03560156 10372 20333 56010
cycle: 0

Station Type Date Time Source
KIPL TAF 2021/09/23 22:59 UTC NOAA

TAF
AMD KIPL 232159Z 2322/2418 11010KT P6SM FEW120 BKN200 OVC250
FM232330 23010KT P6SM VCSH SCT100 BKN150 OVC250
FM240200 VRB06KT P6SM SCT150 BKN250
FM240400 14005KT P6SM FEW150 SCT250

Example: see airport list